Time;durP1;ratioP1;P1;durP2;ratioP2;P2;SDS_P1;SDS_P2;PMS_P1;PMS_P2;Temp;Humidity;BMP_temperature;BMP_pressure;BME280_temperature;BME280_humidity;BME280_pressure;Samples;Min_cycle;Max_cycle;Signal;HPM_P1;HPM_P2
2024/01/09 00:00:35;;;;;;;21.17;9.27;;;;;;;-9.49;89.72;103072.00;5039766;28;20469;-73
2024/01/09 00:03:02;;;;;;;24.03;9.63;;;;;;;-9.48;90.19;103065.16;5045889;28;20446;-73
2024/01/09 00:05:29;;;;;;;21.93;10.63;;;;;;;-9.50;90.18;103067.03;5042477;28;20975;-73
2024/01/09 00:07:55;;;;;;;19.87;8.20;;;;;;;-9.51;89.10;103065.41;5048798;28;20476;-73
2024/01/09 00:10:22;;;;;;;22.60;9.57;;;;;;;-9.52;89.22;103064.59;5043416;28;20461;-73
2024/01/09 00:12:48;;;;;;;27.43;9.40;;;;;;;-9.53;89.55;103054.53;5047069;28;20453;-72
2024/01/09 00:15:15;;;;;;;18.77;8.03;;;;;;;-9.55;89.59;103057.22;5046259;28;20488;-73
2024/01/09 00:17:41;;;;;;;23.07;10.53;;;;;;;-9.57;89.96;103068.50;5038532;28;20481;-74
2024/01/09 00:20:09;;;;;;;21.27;9.37;;;;;;;-9.57;90.19;103065.97;5037884;28;20450;-73
2024/01/09 00:22:36;;;;;;;22.90;9.33;;;;;;;-9.60;89.71;103067.03;5047589;28;20805;-73
2024/01/09 00:25:03;;;;;;;21.40;10.27;;;;;;;-9.60;89.66;103068.78;5049322;28;20473;-73
2024/01/09 00:27:29;;;;;;;20.73;9.67;;;;;;;-9.60;89.05;103073.88;5052785;28;20473;-73
2024/01/09 00:29:56;;;;;;;21.37;9.33;;;;;;;-9.61;89.19;103070.53;5045506;28;20445;-72
2024/01/09 00:32:22;;;;;;;27.43;10.67;;;;;;;-9.62;89.93;103065.53;5044636;28;20858;-73
2024/01/09 00:34:51;;;;;;;29.47;11.30;;;;;;;-9.62;90.32;103075.78;5038927;28;20934;-73
2024/01/09 00:37:17;;;;;;;18.60;8.83;;;;;;;-9.63;90.50;103074.16;5046108;28;20437;-72
2024/01/09 00:39:45;;;;;;;24.30;9.00;;;;;;;-9.62;93.21;103068.09;5045426;28;20804;-73
2024/01/09 00:42:11;;;;;;;22.53;9.60;;;;;;;-9.62;93.33;103063.00;5049960;28;20445;-73
2024/01/09 00:44:41;;;;;;;19.40;8.60;;;;;;;-9.66;92.64;103072.69;5045276;28;20481;-74
2024/01/09 00:47:09;;;;;;;19.13;9.10;;;;;;;-9.66;93.36;103070.13;5048380;28;20508;-73
2024/01/09 00:49:35;;;;;;;21.50;8.97;;;;;;;-9.69;92.91;103067.81;5047899;28;20502;-74
2024/01/09 00:52:02;;;;;;;21.43;9.70;;;;;;;-9.70;93.46;103079.00;5043897;28;20446;-73
2024/01/09 00:54:29;;;;;;;19.37;8.60;;;;;;;-9.72;93.16;103070.66;5047546;28;20583;-73
2024/01/09 00:56:56;;;;;;;24.50;9.70;;;;;;;-9.74;93.42;103071.72;5051660;28;20476;-73
2024/01/09 00:59:23;;;;;;;25.83;9.37;;;;;;;-9.75;93.79;103072.66;5052185;28;20442;-73
2024/01/09 01:01:49;;;;;;;19.53;9.70;;;;;;;-9.77;94.91;103064.31;5045976;28;20447;-73
2024/01/09 01:04:16;;;;;;;21.10;8.90;;;;;;;-9.79;95.77;103069.56;5053034;28;20540;-75
2024/01/09 01:06:43;;;;;;;22.60;10.03;;;;;;;-9.80;95.43;103073.06;5052321;28;20441;-72
2024/01/09 01:09:09;;;;;;;25.57;10.03;;;;;;;-9.78;97.74;103071.16;5046125;28;20485;-73
2024/01/09 01:11:36;;;;;;;19.13;8.80;;;;;;;-9.81;97.03;103075.75;5046455;28;20477;-73
2024/01/09 01:14:04;;;;;;;23.93;10.97;;;;;;;-9.85;95.88;103082.88;5051040;28;20458;-74
2024/01/09 01:16:31;;;;;;;28.77;12.83;;;;;;;-9.91;95.07;103082.56;5044848;28;20450;-73
2024/01/09 01:18:57;;;;;;;27.17;11.03;;;;;;;-9.94;93.28;103083.66;5046803;28;20438;-73
2024/01/09 01:21:24;;;;;;;28.53;11.33;;;;;;;-9.97;93.95;103083.94;5047745;28;20457;-72
2024/01/09 01:23:50;;;;;;;29.03;12.40;;;;;;;-9.99;93.74;103085.00;5055152;28;20979;-72
2024/01/09 01:26:17;;;;;;;29.63;13.77;;;;;;;-10.01;93.05;103081.75;5044210;28;20521;-72
2024/01/09 01:28:43;;;;;;;23.07;10.60;;;;;;;-10.03;92.68;103086.19;5046746;28;20992;-73
2024/01/09 01:31:11;;;;;;;30.93;11.37;;;;;;;-10.05;92.97;103090.66;5046510;28;20457;-73
2024/01/09 01:33:37;;;;;;;30.27;12.37;;;;;;;-10.09;92.47;103089.31;5050790;28;20855;-72
2024/01/09 01:36:04;;;;;;;26.97;11.57;;;;;;;-10.11;93.58;103086.06;5047327;28;20986;-73
2024/01/09 01:38:31;;;;;;;25.23;11.43;;;;;;;-10.14;92.71;103094.00;5042251;28;20441;-72
2024/01/09 01:40:57;;;;;;;25.83;12.67;;;;;;;-10.16;93.75;103086.44;5046092;28;20452;-72
2024/01/09 01:43:23;;;;;;;24.37;11.00;;;;;;;-10.17;93.72;103082.28;5048815;28;20480;-73
2024/01/09 01:45:50;;;;;;;25.27;10.97;;;;;;;-10.17;93.83;103091.69;5055014;28;20444;-74
2024/01/09 01:48:19;;;;;;;23.40;10.67;;;;;;;-10.21;94.22;103093.69;5058562;28;20477;-73
2024/01/09 01:50:45;;;;;;;21.60;10.37;;;;;;;-10.23;93.81;103087.91;5037128;28;20478;-73
2024/01/09 01:53:12;;;;;;;24.90;10.87;;;;;;;-10.23;93.94;103092.22;5047913;28;20543;-72
2024/01/09 01:55:38;;;;;;;23.97;10.40;;;;;;;-10.30;93.86;103091.91;5051752;28;20469;-73
2024/01/09 01:58:05;;;;;;;23.70;10.53;;;;;;;-10.32;94.20;103087.88;5041822;28;20454;-73
2024/01/09 02:00:32;;;;;;;23.47;11.70;;;;;;;-10.36;93.83;103089.09;5042722;28;20458;-73
2024/01/09 02:02:58;;;;;;;27.53;10.97;;;;;;;-10.38;94.64;103096.03;5050161;28;20457;-73
2024/01/09 02:05:28;;;;;;;23.67;10.97;;;;;;;-10.42;94.76;103095.50;5040013;28;20825;-73
2024/01/09 02:07:54;;;;;;;25.93;11.00;;;;;;;-10.42;95.34;103103.16;5050059;28;20481;-72
2024/01/09 02:10:22;;;;;;;30.07;11.70;;;;;;;-10.45;95.38;103097.50;5049011;28;20437;-72
2024/01/09 02:12:48;;;;;;;31.13;11.50;;;;;;;-10.48;96.67;103090.91;5049446;28;20536;-73
2024/01/09 02:15:15;;;;;;;25.13;10.60;;;;;;;-10.48;95.91;103100.28;5051410;28;20468;-73
2024/01/09 02:17:41;;;;;;;19.83;10.63;;;;;;;-10.53;95.52;103087.94;5043323;28;20441;-73
2024/01/09 02:20:09;;;;;;;23.90;10.40;;;;;;;-10.55;95.76;103089.81;5051153;28;20774;-73
2024/01/09 02:22:37;;;;;;;26.47;11.17;;;;;;;-10.59;95.88;103091.00;5045456;28;20453;-72
2024/01/09 02:25:04;;;;;;;24.83;10.83;;;;;;;-10.59;96.68;103082.50;5047941;28;20469;-72
2024/01/09 02:27:39;;;;;;;22.47;10.53;;;;;;;-10.59;96.38;103080.78;5049370;28;20453;-73
2024/01/09 02:30:09;;;;;;;34.10;13.03;;;;;;;-10.63;96.44;103084.50;5046442;28;20467;-72
2024/01/09 02:32:36;;;;;;;28.77;11.90;;;;;;;-10.65;95.15;103081.28;5044491;28;20457;-73
2024/01/09 02:35:02;;;;;;;23.73;11.37;;;;;;;-10.66;95.12;103086.53;5044819;28;20983;-72
2024/01/09 02:37:28;;;;;;;26.33;11.83;;;;;;;-10.70;95.36;103080.88;5041817;28;20466;-73
2024/01/09 02:40:00;;;;;;;30.33;11.50;;;;;;;-10.72;95.09;103090.38;5045848;28;20467;-73
2024/01/09 02:42:26;;;;;;;27.53;11.23;;;;;;;-10.73;96.18;103083.66;5039189;28;20458;-73
2024/01/09 02:44:54;;;;;;;32.90;12.57;;;;;;;-10.73;96.98;103087.94;5044712;28;20798;-73
2024/01/09 02:47:21;;;;;;;29.13;11.77;;;;;;;-10.77;97.06;103087.38;5042778;28;20441;-72
2024/01/09 02:49:48;;;;;;;30.47;11.93;;;;;;;-10.78;96.60;103088.31;5046307;28;20527;-72
2024/01/09 02:52:15;;;;;;;29.40;12.50;;;;;;;-10.78;96.23;103088.31;5041919;28;20453;-73
2024/01/09 02:54:41;;;;;;;28.70;12.10;;;;;;;-10.78;96.89;103085.78;5044845;28;20480;-72
2024/01/09 02:57:08;;;;;;;27.63;11.63;;;;;;;-10.79;96.50;103088.44;5046109;28;20458;-73
2024/01/09 02:59:34;;;;;;;23.08;10.80;;;;;;;-10.81;96.21;103078.34;5049580;28;20451;-74
2024/01/09 03:02:01;;;;;;;29.70;13.60;;;;;;;-10.82;97.27;103083.63;5044013;28;20206;-74
2024/01/09 03:04:28;;;;;;;38.53;13.43;;;;;;;-10.83;96.52;103089.63;5049204;28;20476;-73
2024/01/09 03:06:55;;;;;;;28.43;11.97;;;;;;;-10.82;97.59;103081.06;5048107;28;20442;-73
2024/01/09 03:09:21;;;;;;;31.90;11.60;;;;;;;-10.84;96.72;103075.25;5035785;28;20465;-73
2024/01/09 03:11:47;;;;;;;35.63;14.17;;;;;;;-10.81;99.29;103082.66;5044966;28;20450;-73
2024/01/09 03:14:15;;;;;;;27.90;11.47;;;;;;;-10.83;97.85;103080.25;5046588;28;20468;-74
2024/01/09 03:16:41;;;;;;;35.97;14.10;;;;;;;-10.85;98.31;103082.13;5041065;28;20445;-73
2024/01/09 03:19:07;;;;;;;32.50;14.30;;;;;;;-10.87;97.31;103075.53;5039879;28;20447;-73
2024/01/09 03:21:35;;;;;;;41.53;15.77;;;;;;;-10.87;97.41;103076.31;5038208;28;20446;-75
2024/01/09 03:24:01;;;;;;;48.07;17.40;;;;;;;-10.87;99.11;103071.22;5038165;28;20470;-73
2024/01/09 03:26:27;;;;;;;30.23;12.97;;;;;;;-10.89;97.73;103077.38;5052460;28;20452;-72
2024/01/09 03:28:54;;;;;;;31.30;12.27;;;;;;;-10.89;98.21;103079.91;5051049;28;20495;-74
2024/01/09 03:31:20;;;;;;;29.67;13.10;;;;;;;-10.89;98.85;103079.91;5049531;28;20460;-72
2024/01/09 03:33:47;;;;;;;29.40;13.00;;;;;;;-10.92;98.80;103093.75;5049756;28;21038;-72
2024/01/09 03:36:13;;;;;;;56.40;22.13;;;;;;;-10.94;97.63;103085.41;5042162;28;20532;-73
2024/01/09 03:38:41;;;;;;;43.80;17.17;;;;;;;-10.94;99.08;103095.63;5049844;28;20453;-72
2024/01/09 03:41:07;;;;;;;34.30;12.83;;;;;;;-10.94;98.48;103076.94;5043001;28;20445;-73
2024/01/09 03:43:34;;;;;;;41.20;16.87;;;;;;;-10.93;98.26;103078.59;5050100;28;20456;-73
2024/01/09 03:46:00;;;;;;;47.60;22.87;;;;;;;-10.93;98.49;103084.47;5050412;28;20441;-73
2024/01/09 03:48:27;;;;;;;47.17;25.90;;;;;;;-10.94;97.80;103089.69;5049170;28;20487;-73
2024/01/09 03:50:54;;;;;;;49.43;24.57;;;;;;;-10.92;99.32;103086.09;5049466;28;20437;-73
2024/01/09 03:53:20;;;;;;;63.53;27.33;;;;;;;-10.92;99.38;103098.84;5048192;28;20956;-73
2024/01/09 03:55:48;;;;;;;36.70;19.57;;;;;;;-10.94;98.63;103092.25;5048327;28;20453;-74
2024/01/09 03:58:15;;;;;;;31.10;15.53;;;;;;;-10.95;99.34;103088.91;5048825;28;20798;-72
2024/01/09 04:00:41;;;;;;;36.93;14.53;;;;;;;-10.97;99.47;103095.06;5049081;28;20809;-73
2024/01/09 04:03:07;;;;;;;27.43;13.37;;;;;;;-10.99;98.45;103092.63;5046204;28;20449;-73
2024/01/09 04:05:34;;;;;;;31.23;14.63;;;;;;;-10.98;99.52;103089.13;5043382;28;20477;-72
2024/01/09 04:08:00;;;;;;;34.40;13.27;;;;;;;-11.00;97.82;103093.56;5045538;28;20454;-73
2024/01/09 04:10:26;;;;;;;28.40;12.83;;;;;;;-10.99;99.63;103097.72;5045762;28;20454;-72
2024/01/09 04:12:54;;;;;;;32.40;13.90;;;;;;;-10.99;99.72;103090.06;5038734;28;20500;-72
2024/01/09 04:15:20;;;;;;;28.23;13.63;;;;;;;-11.02;99.31;103095.41;5049280;28;20465;-72
2024/01/09 04:17:47;;;;;;;29.27;12.93;;;;;;;-11.03;98.10;103088.69;5052267;28;20442;-73
2024/01/09 04:20:13;;;;;;;33.93;15.03;;;;;;;-11.03;98.35;103104.00;5051146;28;20437;-73
2024/01/09 04:22:40;;;;;;;34.97;14.37;;;;;;;-11.04;98.46;103106.69;5053691;28;20456;-73
2024/01/09 04:25:07;;;;;;;32.00;13.63;;;;;;;-11.03;99.32;103103.22;5051178;28;20477;-73
2024/01/09 04:27:33;;;;;;;23.17;10.97;;;;;;;-11.04;98.65;103101.56;5051989;28;20448;-72
2024/01/09 04:30:01;;;;;;;34.17;14.27;;;;;;;-11.03;99.61;103110.88;5047470;28;20556;-74
2024/01/09 04:32:28;;;;;;;34.13;12.87;;;;;;;-11.05;100.00;103112.72;5053349;28;20476;-72
2024/01/09 04:34:54;;;;;;;34.00;14.03;;;;;;;-11.12;99.18;103109.84;5052787;28;20485;-73
2024/01/09 04:37:21;;;;;;;31.83;13.63;;;;;;;-11.04;100.00;103107.50;5045248;28;20479;-73
2024/01/09 04:39:47;;;;;;;31.27;12.50;;;;;;;-11.06;100.00;103113.66;5040496;28;20461;-72
2024/01/09 04:42:13;;;;;;;29.60;12.87;;;;;;;-11.09;100.00;103104.50;5046461;28;20467;-73
2024/01/09 04:44:40;;;;;;;28.37;13.80;;;;;;;-11.07;100.00;103109.50;5047668;28;20464;-73
2024/01/09 04:47:07;;;;;;;32.13;12.73;;;;;;;-11.12;99.92;103114.16;5053092;28;20449;-73
2024/01/09 04:49:34;;;;;;;28.67;13.30;;;;;;;-11.13;100.00;103117.63;5044801;28;20979;-72
2024/01/09 04:52:00;;;;;;;39.83;11.77;;;;;;;-11.13;100.00;103105.69;5037709;28;20450;-73
2024/01/09 04:54:26;;;;;;;34.17;13.50;;;;;;;-11.17;100.00;103121.34;5048412;28;20503;-72
2024/01/09 04:56:53;;;;;;;26.43;12.87;;;;;;;-11.20;100.00;103117.31;5043880;28;20446;-72
2024/01/09 04:59:19;;;;;;;33.70;12.97;;;;;;;-11.19;100.00;103118.91;5041427;28;20457;-73
2024/01/09 05:01:49;;;;;;;29.63;13.17;;;;;;;-11.21;100.00;103118.25;5046155;28;20442;-73
2024/01/09 05:04:17;;;;;;;24.73;11.93;;;;;;;-11.23;100.00;103120.09;5047878;28;20473;-73
2024/01/09 05:06:43;;;;;;;29.87;12.77;;;;;;;-11.22;100.00;103128.56;5046455;28;20435;-72
2024/01/09 05:09:10;;;;;;;34.13;13.13;;;;;;;-11.25;100.00;103129.63;5038345;28;20480;-72
2024/01/09 05:11:37;;;;;;;31.25;12.50;;;;;;;-11.25;100.00;103118.59;5045425;28;20461;-74
2024/01/09 05:14:03;;;;;;;33.17;13.00;;;;;;;-11.26;100.00;103128.00;5052440;28;20581;-72
2024/01/09 05:16:29;;;;;;;31.97;12.67;;;;;;;-11.27;100.00;103118.75;5045781;28;20463;-72
2024/01/09 05:18:56;;;;;;;32.95;13.43;;;;;;;-11.28;100.00;103119.66;5045060;28;20449;-72
2024/01/09 05:21:23;;;;;;;36.17;15.03;;;;;;;-11.26;100.00;103122.91;5015631;28;20238;-73
2024/01/09 05:23:50;;;;;;;30.63;13.13;;;;;;;-11.26;100.00;103130.56;5049848;28;20465;-73
2024/01/09 05:26:16;;;;;;;35.67;13.97;;;;;;;-11.28;100.00;103121.41;5052348;28;20454;-72
2024/01/09 05:28:42;;;;;;;27.23;12.00;;;;;;;-11.29;100.00;103123.13;5049521;28;20961;-72
2024/01/09 05:31:09;;;;;;;27.90;12.63;;;;;;;-11.32;100.00;103120.84;5046802;28;20520;-73
2024/01/09 05:33:36;;;;;;;35.33;14.35;;;;;;;-11.32;100.00;103117.47;5052332;28;20461;-72
2024/01/09 05:36:02;;;;;;;36.70;13.03;;;;;;;-11.31;100.00;103122.47;5056456;28;20291;-73
2024/01/09 05:38:30;;;;;;;27.52;12.15;;;;;;;-11.33;100.00;103119.19;5041628;28;20442;-72
2024/01/09 05:40:56;;;;;;;28.63;12.82;;;;;;;-11.34;100.00;103120.13;5044579;28;20209;-73
2024/01/09 05:43:23;;;;;;;30.17;12.80;;;;;;;-11.29;100.00;103130.00;5051244;28;20543;-73
2024/01/09 05:45:49;;;;;;;34.27;13.17;;;;;;;-11.30;100.00;103118.97;5048977;28;20213;-73
2024/01/09 05:48:15;;;;;;;27.70;12.75;;;;;;;-11.30;100.00;103118.97;5056658;28;20434;-72
2024/01/09 05:50:42;;;;;;;29.53;13.07;;;;;;;-11.28;100.00;103114.56;5039363;28;20211;-73
2024/01/09 05:53:09;;;;;;;27.30;13.33;;;;;;;-11.28;100.00;103114.56;5046365;28;20495;-73
2024/01/09 05:55:36;;;;;;;37.33;14.83;;;;;;;-11.25;100.00;103119.41;5050848;28;20492;-75
2024/01/09 05:58:03;;;;;;;29.93;12.37;;;;;;;-11.25;100.00;103111.78;5040662;28;20449;-73
2024/01/09 06:00:30;;;;;;;28.17;12.23;;;;;;;-11.27;100.00;103115.38;5052160;28;20499;-73
2024/01/09 06:02:56;;;;;;;34.67;14.17;;;;;;;-11.29;100.00;103117.25;5052720;28;20449;-73
2024/01/09 06:05:22;;;;;;;41.70;14.10;;;;;;;-11.32;100.00;103115.75;5047253;28;20465;-73
2024/01/09 06:07:49;;;;;;;38.20;13.23;;;;;;;-11.35;100.00;103115.16;5055940;28;20456;-73
2024/01/09 06:10:18;;;;;;;33.53;14.43;;;;;;;-11.34;100.00;103115.03;5051786;28;20473;-73
2024/01/09 06:12:46;;;;;;;26.07;13.37;;;;;;;-11.35;100.00;103118.53;5052783;28;20199;-73
2024/01/09 06:15:12;;;;;;;30.80;13.23;;;;;;;-11.35;100.00;103121.06;5051231;28;20827;-73
2024/01/09 06:17:38;;;;;;;35.93;14.10;;;;;;;-11.36;100.00;103127.13;5036466;28;20441;-72
2024/01/09 06:20:06;;;;;;;34.33;15.03;;;;;;;-11.38;100.00;103116.22;5050020;28;20441;-73
2024/01/09 06:22:32;;;;;;;32.00;14.57;;;;;;;-11.38;100.00;103120.50;5043420;28;20862;-72
2024/01/09 06:24:59;;;;;;;33.17;15.23;;;;;;;-11.39;100.00;103112.03;5047519;28;20474;-73
2024/01/09 06:27:25;;;;;;;31.00;14.30;;;;;;;-11.37;100.00;103111.94;5050521;28;20954;-72
2024/01/09 06:29:53;;;;;;;28.17;14.17;;;;;;;-11.36;100.00;103128.84;5047468;28;20976;-72
2024/01/09 06:32:21;;;;;;;34.40;14.03;;;;;;;-11.39;100.00;103124.00;5035114;28;20449;-72
2024/01/09 06:34:48;;;;;;;29.23;13.23;;;;;;;-11.40;100.00;103122.34;5047719;28;20482;-72
2024/01/09 06:37:14;;;;;;;38.20;15.00;;;;;;;-11.40;100.00;103132.56;5044288;28;20474;-72
2024/01/09 06:39:40;;;;;;;49.87;18.73;;;;;;;-11.37;100.00;103129.78;5032810;28;20433;-72
2024/01/09 06:42:06;;;;;;;32.53;14.98;;;;;;;-11.36;100.00;103126.28;5051946;28;20453;-72
2024/01/09 06:44:33;;;;;;;42.90;15.13;;;;;;;-11.38;100.00;103120.50;5045658;28;20224;-72
2024/01/09 06:47:01;;;;;;;34.93;13.77;;;;;;;-11.33;100.00;103128.59;5040770;28;20967;-73
2024/01/09 06:49:27;;;;;;;33.00;14.60;;;;;;;-11.33;100.00;103129.41;5061430;28;20468;-72
2024/01/09 06:51:53;;;;;;;40.77;15.97;;;;;;;-11.35;100.00;103131.28;5043703;28;20199;-73
2024/01/09 06:54:22;;;;;;;25.87;12.73;;;;;;;-11.31;100.00;103135.22;5046578;28;20527;-73
2024/01/09 06:56:49;;;;;;;27.13;13.70;;;;;;;-11.36;100.00;103129.66;5051030;28;20863;-73
2024/01/09 06:59:15;;;;;;;32.03;15.37;;;;;;;-11.36;100.00;103127.13;5051011;28;20449;-72
2024/01/09 07:01:41;;;;;;;38.00;15.73;;;;;;;-11.36;100.00;103132.22;5047434;28;20457;-73
2024/01/09 07:04:09;;;;;;;39.63;14.77;;;;;;;-11.34;100.00;103139.75;5049265;28;20488;-72
2024/01/09 07:06:36;;;;;;;36.67;15.23;;;;;;;-11.37;100.00;103135.69;5046003;28;20437;-73
2024/01/09 07:09:02;;;;;;;40.67;17.90;;;;;;;-11.34;100.00;103147.41;5050236;28;20988;-73
2024/01/09 07:11:28;;;;;;;42.47;17.30;;;;;;;-11.36;100.00;103146.69;5044383;28;20506;-72
2024/01/09 07:13:55;;;;;;;35.60;15.30;;;;;;;-11.37;100.00;103150.16;5042634;28;20580;-73
2024/01/09 07:16:21;;;;;;;44.40;22.15;;;;;;;-11.37;100.00;103153.53;5046033;28;20466;-73
2024/01/09 07:18:48;;;;;;;33.92;17.35;;;;;;;-11.38;100.00;103153.66;5046575;28;20250;-72
2024/01/09 07:21:15;;;;;;;41.83;17.50;;;;;;;-11.37;100.00;103157.81;5050751;28;20210;-72
2024/01/09 07:23:42;;;;;;;38.20;15.80;;;;;;;-11.37;100.00;103158.63;5050311;28;20229;-72
2024/01/09 07:26:08;;;;;;;40.57;15.97;;;;;;;-11.38;100.00;103157.00;5049653;28;20199;-73
2024/01/09 07:28:34;;;;;;;34.77;15.63;;;;;;;-11.36;100.00;103156.88;5049877;28;20454;-73
2024/01/09 07:31:00;;;;;;;36.97;15.33;;;;;;;-11.35;100.00;103153.41;5047685;28;20465;-74
2024/01/09 07:33:27;;;;;;;38.47;16.80;;;;;;;-11.34;100.00;103152.50;5047487;28;20465;-73
2024/01/09 07:35:53;;;;;;;36.58;16.45;;;;;;;-11.34;100.00;103155.84;5052099;28;20529;-72
2024/01/09 07:38:24;;;;;;;29.47;15.60;;;;;;;-11.31;100.00;103162.44;5054829;28;20203;-73
2024/01/09 07:40:50;;;;;;;42.03;16.25;;;;;;;-11.31;100.00;103155.59;5054402;28;20449;-73
2024/01/09 07:43:17;;;;;;;33.27;16.03;;;;;;;-11.30;100.00;103156.41;5047381;28;20203;-73
2024/01/09 07:45:43;;;;;;;38.50;15.97;;;;;;;-11.29;100.00;103156.28;5051830;28;20448;-73
2024/01/09 07:48:10;;;;;;;40.73;17.67;;;;;;;-11.26;100.00;103161.16;5046089;28;20449;-73
2024/01/09 07:50:36;;;;;;;34.50;14.82;;;;;;;-11.22;100.00;103154.06;5051113;28;20621;-72
2024/01/09 07:53:03;;;;;;;41.75;16.65;;;;;;;-11.22;100.00;103149.78;5056447;28;20210;-72
2024/01/09 07:55:30;;;;;;;33.17;15.20;;;;;;;-11.17;100.00;103154.50;5042806;28;20215;-72
2024/01/09 07:57:59;;;;;;;38.50;16.50;;;;;;;-11.15;100.00;103155.19;5052767;28;20442;-73
2024/01/09 08:00:25;;;;;;;39.47;17.07;;;;;;;-11.12;100.00;103168.50;5049441;28;20453;-75
2024/01/09 08:02:51;;;;;;;39.43;17.27;;;;;;;-11.08;100.00;103161.44;5048709;28;20458;-73
2024/01/09 08:05:18;;;;;;;40.47;19.10;;;;;;;-11.05;100.00;103164.53;5055908;28;20458;-72
2024/01/09 08:07:44;;;;;;;40.00;18.47;;;;;;;-11.03;100.00;103161.88;5053897;28;20452;-72
2024/01/09 08:10:10;;;;;;;49.93;19.80;;;;;;;-11.00;100.00;103153.97;5048809;28;20469;-72
2024/01/09 08:12:38;;;;;;;42.90;18.13;;;;;;;-10.95;100.00;103162.06;5043323;28;20446;-72
2024/01/09 08:15:05;;;;;;;43.33;17.97;;;;;;;-10.92;100.00;103161.81;5052594;28;20477;-73
2024/01/09 08:17:32;;;;;;;45.93;18.63;;;;;;;-10.88;100.00;103168.31;5052593;28;20457;-73
2024/01/09 08:19:58;;;;;;;47.93;20.00;;;;;;;-10.85;100.00;103158.66;5053534;28;20805;-72
2024/01/09 08:22:24;;;;;;;38.53;18.73;;;;;;;-10.80;100.00;103158.28;5048582;28;20457;-72
2024/01/09 08:24:51;;;;;;;38.63;18.17;;;;;;;-10.77;100.00;103161.38;5050070;28;20473;-73
2024/01/09 08:27:17;;;;;;;48.73;19.77;;;;;;;-10.70;100.00;103170.19;5047058;28;20452;-72
2024/01/09 08:29:45;;;;;;;47.87;21.60;;;;;;;-10.64;100.00;103163.75;5042158;28;20466;-72
2024/01/09 08:32:15;;;;;;;41.27;20.47;;;;;;;-10.61;100.00;103173.72;5051063;28;20437;-72
2024/01/09 08:34:41;;;;;;;44.37;19.43;;;;;;;-10.55;100.00;103157.91;5051446;28;20496;-73
2024/01/09 08:37:08;;;;;;;41.50;18.50;;;;;;;-10.51;100.00;103159.28;5048784;28;20463;-73
2024/01/09 08:39:34;;;;;;;46.47;19.77;;;;;;;-10.45;100.00;103151.13;5053163;28;20796;-72
2024/01/09 08:42:00;;;;;;;47.90;18.97;;;;;;;-10.42;100.00;103149.09;5052363;28;20450;-73
2024/01/09 08:44:27;;;;;;;47.30;19.40;;;;;;;-10.35;100.00;103152.75;5043428;28;20499;-73
2024/01/09 08:46:54;;;;;;;49.27;17.73;;;;;;;-10.31;100.00;103141.38;5043977;28;20920;-73
2024/01/09 08:49:21;;;;;;;48.53;19.30;;;;;;;-10.26;100.00;103135.91;5042858;28;20470;-73
2024/01/09 08:51:49;;;;;;;49.40;21.63;;;;;;;-10.22;100.00;103139.78;5045403;28;20456;-73
2024/01/09 08:54:15;;;;;;;46.83;19.87;;;;;;;-10.15;100.00;103148.56;5041021;28;20560;-73
2024/01/09 08:56:42;;;;;;;51.50;20.33;;;;;;;-10.10;100.00;103149.00;5045736;28;20455;-73
2024/01/09 08:59:09;;;;;;;53.33;21.87;;;;;;;-10.07;100.00;103147.00;5047766;28;20469;-73
2024/01/09 09:01:36;;;;;;;44.37;21.10;;;;;;;-10.02;100.00;103151.69;5043941;28;20453;-73
2024/01/09 09:04:06;;;;;;;48.17;21.77;;;;;;;-9.98;100.00;103153.84;5045281;28;20478;-74
2024/01/09 09:06:32;;;;;;;53.33;22.57;;;;;;;-9.93;100.00;103156.00;5054499;28;20487;-72
2024/01/09 09:08:59;;;;;;;55.10;23.50;;;;;;;-9.88;100.00;103161.53;5040413;28;20442;-73
2024/01/09 09:11:25;;;;;;;49.23;21.53;;;;;;;-9.81;100.00;103165.19;5050066;28;20478;-73
2024/01/09 09:13:51;;;;;;;54.53;23.80;;;;;;;-9.74;100.00;103162.00;5051577;28;20484;-73
2024/01/09 09:16:18;;;;;;;58.60;23.57;;;;;;;-9.70;100.00;103165.91;5049263;28;20454;-73
2024/01/09 09:18:44;;;;;;;49.60;22.67;;;;;;;-9.65;100.00;103173.16;5055987;28;20460;-73
2024/01/09 09:21:13;;;;;;;51.53;23.00;;;;;;;-9.60;100.00;103174.41;5050029;28;20576;-73
2024/01/09 09:23:39;;;;;;;54.07;23.57;;;;;;;-9.54;100.00;103173.06;5046320;28;20473;-73
2024/01/09 09:26:06;;;;;;;55.97;21.43;;;;;;;-9.49;100.00;103158.94;5049751;28;20457;-72
2024/01/09 09:28:32;;;;;;;54.07;23.87;;;;;;;-9.43;100.00;103162.75;5044589;28;20532;-73
2024/01/09 09:30:58;;;;;;;65.30;24.87;;;;;;;-9.34;100.00;103161.91;5043475;28;20477;-73
2024/01/09 09:33:28;;;;;;;47.47;22.53;;;;;;;-9.31;100.00;103156.56;5049557;28;20473;-73
2024/01/09 09:35:55;;;;;;;58.40;26.10;;;;;;;-9.25;100.00;103151.72;5048102;28;20544;-73
2024/01/09 09:38:24;;;;;;;54.70;23.43;;;;;;;-9.22;100.00;103154.00;5045185;28;20819;-72
2024/01/09 09:40:50;;;;;;;57.77;24.97;;;;;;;-9.17;100.00;103151.06;5046150;28;20450;-73
2024/01/09 09:43:24;;;;;;;60.07;24.03;;;;;;;-9.13;100.00;103155.75;5042222;28;20641;-73
2024/01/09 09:45:55;;;;;;;48.43;22.53;;;;;;;-9.06;100.00;103156.03;5040701;28;20500;-73
2024/01/09 09:48:23;;;;;;;50.33;21.23;;;;;;;-9.00;100.00;103158.84;5050156;28;20458;-72
2024/01/09 09:50:52;;;;;;;60.33;23.90;;;;;;;-8.97;100.00;103161.13;5048414;28;20553;-72
2024/01/09 09:53:20;;;;;;;52.03;23.43;;;;;;;-8.93;100.00;103159.94;5045223;28;20493;-73
2024/01/09 09:55:48;;;;;;;51.63;22.60;;;;;;;-8.87;100.00;103158.56;5041655;28;20797;-73
2024/01/09 09:58:14;;;;;;;59.77;26.50;;;;;;;-8.82;100.00;103141.88;5039900;28;20458;-72
2024/01/09 10:00:41;;;;;;;62.70;27.47;;;;;;;-8.75;100.00;103148.03;5043278;28;20450;-72
2024/01/09 10:03:09;;;;;;;53.60;24.20;;;;;;;-8.70;100.00;103152.78;5045473;28;20474;-72
2024/01/09 10:05:38;;;;;;;52.70;22.63;;;;;;;-8.64;100.00;103136.84;5040979;28;20473;-72
2024/01/09 10:08:07;;;;;;;60.10;24.30;;;;;;;-8.58;100.00;103144.78;5043324;28;20519;-72
2024/01/09 10:10:34;;;;;;;57.97;23.80;;;;;;;-8.54;100.00;103137.63;5039112;28;20876;-72
2024/01/09 10:13:02;;;;;;;57.63;24.23;;;;;;;-8.48;99.09;103137.91;5037414;28;20452;-72
2024/01/09 10:15:29;;;;;;;51.10;23.33;;;;;;;-8.41;99.84;103138.94;5046231;28;20619;-73
2024/01/09 10:17:59;;;;;;;60.90;25.13;;;;;;;-8.37;98.74;103136.91;5046215;28;20468;-72
2024/01/09 10:20:29;;;;;;;50.93;21.77;;;;;;;-8.33;99.00;103130.56;5043199;28;20446;-72
2024/01/09 10:22:56;;;;;;;52.87;23.73;;;;;;;-8.29;99.21;103137.03;5039920;28;20485;-72
2024/01/09 10:25:22;;;;;;;57.90;24.37;;;;;;;-8.26;97.90;103136.72;5044487;28;20473;-72
2024/01/09 10:27:50;;;;;;;59.93;23.93;;;;;;;-8.21;98.03;103135.38;5042799;28;20513;-71
2024/01/09 10:30:21;;;;;;;58.63;24.30;;;;;;;-8.19;98.41;103127.53;5043993;28;21801;-72
2024/01/09 10:32:51;;;;;;;56.33;24.63;;;;;;;-8.16;96.34;103128.03;5005270;28;998442;-72
2024/01/09 10:35:17;;;;;;;55.30;23.10;;;;;;;-8.13;97.47;103126.94;5042532;28;20919;-72
2024/01/09 10:37:44;;;;;;;54.87;26.63;;;;;;;-8.10;97.05;103126.66;5040608;28;20515;-71
2024/01/09 10:40:12;;;;;;;54.70;24.10;;;;;;;-8.07;97.08;103128.94;5045484;28;20450;-72
2024/01/09 10:42:45;;;;;;;56.13;24.30;;;;;;;-8.03;97.47;103130.28;5045216;28;20814;-71
2024/01/09 10:45:11;;;;;;;57.87;24.33;;;;;;;-8.01;96.59;103126.63;5042875;28;20853;-71
2024/01/09 10:47:40;;;;;;;45.83;20.20;;;;;;;-7.99;96.64;103129.84;5049971;28;20998;-73
2024/01/09 10:50:10;;;;;;;52.80;23.27;;;;;;;-7.96;96.82;103127.00;5037859;28;20465;-72
2024/01/09 10:52:36;;;;;;;57.80;21.83;;;;;;;-7.92;96.82;103130.09;5041529;28;20478;-73
2024/01/09 10:55:06;;;;;;;45.17;20.07;;;;;;;-7.89;97.13;103120.34;5041894;28;20467;-74
2024/01/09 10:57:32;;;;;;;44.67;21.33;;;;;;;-7.87;96.99;103115.88;5045488;28;20980;-74